Time;durP1;ratioP1;P1;durP2;ratioP2;P2;SDS_P1;SDS_P2;PMS_P1;PMS_P2;Temp;Humidity;BMP_temperature;BMP_pressure;BME280_temperature;BME280_humidity;BME280_pressure;Samples;Min_cycle;Max_cycle;Signal;HPM_P1;HPM_P2
2022/06/29 00:00:24;;;;;;;5.40;5.00;;;16.60;99.90;;;;;;5059414;28;20467;-77
2022/06/29 00:02:51;;;;;;;5.67;5.03;;;16.60;99.90;;;;;;5058247;28;20455;-77
2022/06/29 00:05:19;;;;;;;5.20;4.80;;;16.60;99.90;;;;;;5058259;28;20464;-77
2022/06/29 00:07:46;;;;;;;5.50;5.10;;;16.50;99.90;;;;;;5058330;28;20475;-77
2022/06/29 00:10:14;;;;;;;5.53;5.03;;;16.50;99.90;;;;;;5058023;28;20456;-77
2022/06/29 00:12:42;;;;;;;7.50;5.70;;;16.50;99.90;;;;;;5058328;28;20479;-77
2022/06/29 00:15:11;;;;;;;6.07;5.57;;;16.40;99.90;;;;;;5058422;28;20464;-77
2022/06/29 00:17:38;;;;;;;5.60;5.20;;;16.40;99.90;;;;;;5057397;28;20482;-76
2022/06/29 00:20:07;;;;;;;5.80;5.30;;;16.40;99.90;;;;;;5057447;28;20482;-77
2022/06/29 00:22:35;;;;;;;4.90;4.50;;;16.40;99.90;;;;;;5057691;28;20848;-77
2022/06/29 00:25:02;;;;;;;6.63;5.10;;;16.40;99.90;;;;;;5057880;28;20455;-77
2022/06/29 00:27:29;;;;;;;5.60;5.07;;;16.40;99.90;;;;;;5057985;28;20482;-77
2022/06/29 00:29:56;;;;;;;4.77;4.37;;;16.40;99.90;;;;;;5057115;28;20455;-77
2022/06/29 00:32:23;;;;;;;6.17;4.90;;;16.40;99.90;;;;;;5058014;28;21017;-77
2022/06/29 00:34:50;;;;;;;5.40;4.90;;;16.30;99.90;;;;;;5057855;28;20959;-77
2022/06/29 00:37:17;;;;;;;5.60;5.10;;;16.30;99.90;;;;;;5058259;28;20490;-77
2022/06/29 00:39:44;;;;;;;5.53;5.03;;;16.30;99.90;;;;;;5057230;28;20459;-77
2022/06/29 00:42:10;;;;;;;5.30;4.80;;;16.20;99.90;;;;;;5058094;28;20854;-77
2022/06/29 00:44:37;;;;;;;5.60;5.10;;;16.20;99.90;;;;;;5057582;28;20462;-77
2022/06/29 00:47:05;;;;;;;5.43;4.93;;;16.20;99.90;;;;;;5057525;28;21003;-76
2022/06/29 00:49:34;;;;;;;6.20;5.60;;;16.20;99.90;;;;;;5057153;28;20962;-75
2022/06/29 00:52:05;;;;;;;4.80;4.37;;;16.20;99.90;;;;;;5058017;28;20460;-77
2022/06/29 00:54:36;;;;;;;5.20;4.80;;;16.20;99.90;;;;;;5057228;28;20455;-76
2022/06/29 00:57:06;;;;;;;6.63;4.67;;;16.20;99.90;;;;;;5057483;28;20574;-76
2022/06/29 00:59:42;;;;;;;5.20;4.80;;;16.20;99.90;;;;;;5056418;28;20459;-77
2022/06/29 01:02:08;;;;;;;5.23;4.83;;;16.20;99.90;;;;;;5056676;28;21019;-77
2022/06/29 01:04:37;;;;;;;7.90;5.20;;;16.10;99.90;;;;;;5056848;28;20466;-76
2022/06/29 01:07:04;;;;;;;5.53;5.03;;;16.10;99.90;;;;;;5056246;28;20486;-76
2022/06/29 01:09:31;;;;;;;5.60;5.00;;;16.10;99.90;;;;;;5056037;28;20482;-76
2022/06/29 01:11:59;;;;;;;5.27;4.83;;;16.10;99.90;;;;;;5056749;28;20953;-76
2022/06/29 01:14:25;;;;;;;5.80;5.30;;;16.10;99.90;;;;;;5056527;28;21181;-76
2022/06/29 01:16:52;;;;;;;4.40;4.10;;;16.10;99.90;;;;;;5055661;28;20571;-76
2022/06/29 01:19:19;;;;;;;5.43;4.97;;;16.10;99.90;;;;;;5055789;28;20470;-77
2022/06/29 01:21:51;;;;;;;5.00;4.60;;;16.10;99.90;;;;;;5056282;28;20464;-76
2022/06/29 01:24:19;;;;;;;5.83;5.23;;;16.00;99.90;;;;;;5055554;28;20483;-76
2022/06/29 01:26:46;;;;;;;4.90;4.50;;;16.00;99.90;;;;;;5054509;28;20455;-76
2022/06/29 01:29:13;;;;;;;5.67;5.17;;;16.00;99.90;;;;;;5054139;28;20467;-74
2022/06/29 01:31:39;;;;;;;6.00;5.07;;;16.00;99.90;;;;;;5054201;28;20461;-76
2022/06/29 01:34:06;;;;;;;6.63;4.83;;;16.00;99.90;;;;;;5054857;28;20487;-76
2022/06/29 01:36:33;;;;;;;5.43;4.93;;;16.00;99.90;;;;;;5054617;28;20459;-76
2022/06/29 01:38:59;;;;;;;5.20;4.80;;;16.00;99.90;;;;;;5059646;28;20471;-75
2022/06/29 01:41:28;;;;;;;5.47;4.97;;;16.00;99.90;;;;;;5058717;28;20526;-76
2022/06/29 01:43:55;;;;;;;7.43;4.80;;;15.90;99.90;;;;;;5057863;28;20819;-76
2022/06/29 01:46:22;;;;;;;5.90;4.33;;;15.90;99.90;;;;;;5057066;28;20456;-75
2022/06/29 01:48:48;;;;;;;5.03;4.60;;;15.90;99.90;;;;;;5055179;28;20838;-75
2022/06/29 01:51:15;;;;;;;5.20;4.70;;;15.90;99.90;;;;;;5053636;28;20551;-76
2022/06/29 01:53:42;;;;;;;5.30;4.90;;;15.90;99.90;;;;;;5054107;28;20858;-76
2022/06/29 01:56:09;;;;;;;6.73;5.17;;;15.90;99.90;;;;;;5054671;28;20466;-75
2022/06/29 01:58:37;;;;;;;5.77;5.17;;;15.90;99.90;;;;;;5054598;28;20881;-76
2022/06/29 02:01:03;;;;;;;5.57;4.70;;;15.90;99.90;;;;;;5052476;28;20471;-77
2022/06/29 02:03:30;;;;;;;5.23;4.73;;;16.00;99.90;;;;;;5055143;28;20471;-76
2022/06/29 02:05:57;;;;;;;5.50;5.00;;;16.00;99.90;;;;;;5054606;28;21284;-75
2022/06/29 02:08:24;;;;;;;6.20;5.60;;;16.00;99.90;;;;;;5054250;28;20480;-75
2022/06/29 02:10:50;;;;;;;6.13;5.53;;;15.90;99.90;;;;;;5054168;28;20455;-76
2022/06/29 02:13:17;;;;;;;5.70;5.20;;;16.00;99.90;;;;;;5054280;28;20483;-76
2022/06/29 02:15:45;;;;;;;5.00;4.60;;;16.00;99.90;;;;;;5054338;28;20978;-75
2022/06/29 02:18:12;;;;;;;5.30;4.90;;;16.00;99.90;;;;;;5054904;28;20483;-77
2022/06/29 02:20:39;;;;;;;5.43;4.93;;;15.90;99.90;;;;;;5054188;28;20821;-77
2022/06/29 02:23:06;;;;;;;6.13;4.97;;;15.90;99.90;;;;;;5054516;28;20456;-76
2022/06/29 02:25:32;;;;;;;5.00;4.60;;;15.90;99.90;;;;;;5053908;28;20463;-74
2022/06/29 02:27:59;;;;;;;5.33;4.93;;;15.80;99.90;;;;;;5053938;28;20475;-76
2022/06/29 02:35:52;;;;;;;5.70;5.10;;;15.90;99.90;;;;;;5053839;28;20458;-76
2022/06/29 02:38:18;;;;;;;5.40;5.00;;;15.80;99.90;;;;;;5054225;28;20479;-76
2022/06/29 02:40:45;;;;;;;5.10;4.60;;;15.90;99.90;;;;;;5053679;28;20614;-76
2022/06/29 02:43:12;;;;;;;5.57;5.13;;;15.80;99.90;;;;;;5054133;28;20459;-75
2022/06/29 02:45:38;;;;;;;5.97;5.40;;;15.80;99.90;;;;;;5053766;28;20466;-76
2022/06/29 02:48:05;;;;;;;4.97;4.53;;;15.70;99.90;;;;;;5054722;28;20487;-76
2022/06/29 02:50:33;;;;;;;6.13;5.40;;;15.70;99.90;;;;;;5053547;28;20490;-75
2022/06/29 02:53:00;;;;;;;5.90;5.40;;;15.70;99.90;;;;;;5053921;28;20491;-75
2022/06/29 02:55:27;;;;;;;6.20;5.70;;;15.70;99.90;;;;;;5054346;28;20459;-76
2022/06/29 02:57:54;;;;;;;6.60;5.37;;;15.70;99.90;;;;;;5053793;28;20483;-76
2022/06/29 03:00:20;;;;;;;5.70;5.13;;;15.70;99.90;;;;;;5053972;28;20462;-76
2022/06/29 03:02:47;;;;;;;6.37;5.77;;;15.70;99.90;;;;;;5055672;28;20455;-76
2022/06/29 03:05:14;;;;;;;5.93;5.43;;;15.70;99.90;;;;;;5057841;28;21073;-76
2022/06/29 03:07:42;;;;;;;5.50;5.00;;;15.70;99.90;;;;;;5057883;28;20479;-76
2022/06/29 03:10:09;;;;;;;5.73;5.20;;;15.70;99.90;;;;;;5131964;23;21019;-68
2022/06/29 03:12:36;;;;;;;5.17;4.70;;;15.70;99.90;;;;;;5094022;28;20844;-68
2022/06/29 03:15:03;;;;;;;5.80;5.40;;;15.70;99.90;;;;;;5094751;28;20485;-68
2022/06/29 03:17:30;;;;;;;6.30;5.67;;;15.70;99.90;;;;;;5102972;28;20855;-68
2022/06/29 03:19:58;;;;;;;5.40;4.97;;;15.70;99.90;;;;;;5113916;28;20456;-68
2022/06/29 03:22:25;;;;;;;5.10;4.70;;;15.70;99.90;;;;;;5114329;28;20550;-69
2022/06/29 03:24:53;;;;;;;5.60;5.10;;;15.70;99.90;;;;;;5114353;28;20467;-69
2022/06/29 03:27:19;;;;;;;5.03;4.63;;;15.60;99.90;;;;;;5114861;28;20484;-69
2022/06/29 03:29:46;;;;;;;5.13;4.77;;;15.60;99.90;;;;;;5113824;28;20464;-68
2022/06/29 03:32:13;;;;;;;5.80;5.30;;;15.60;99.90;;;;;;5110206;28;20456;-70
2022/06/29 03:34:39;;;;;;;5.67;5.17;;;15.60;99.90;;;;;;5114224;28;21023;-70
2022/06/29 03:37:06;;;;;;;5.60;5.10;;;15.60;99.90;;;;;;5114662;28;20873;-70
2022/06/29 03:39:33;;;;;;;6.70;5.57;;;15.60;99.90;;;;;;5113911;28;20460;-70
2022/06/29 03:42:01;;;;;;;6.00;5.37;;;15.60;99.90;;;;;;5114261;28;20483;-70
2022/06/29 03:44:28;;;;;;;6.37;4.97;;;15.60;99.90;;;;;;5114542;28;20456;-70
2022/06/29 03:46:54;;;;;;;6.00;5.40;;;15.60;99.90;;;;;;5114155;28;20528;-69
2022/06/29 03:49:21;;;;;;;6.27;5.77;;;15.60;99.90;;;;;;5113968;28;20453;-69
2022/06/29 03:51:48;;;;;;;5.10;4.60;;;15.60;99.90;;;;;;5113878;28;20460;-69
2022/06/29 03:54:14;;;;;;;5.27;4.77;;;15.50;99.90;;;;;;5114053;28;20488;-70
2022/06/29 03:56:41;;;;;;;6.20;5.60;;;15.60;99.90;;;;;;5113854;28;20464;-70
2022/06/29 03:59:09;;;;;;;6.20;5.70;;;15.60;99.90;;;;;;5113161;28;20456;-69
2022/06/29 04:01:36;;;;;;;5.43;5.03;;;15.60;99.90;;;;;;5113799;28;20468;-69
2022/06/29 04:04:02;;;;;;;7.00;5.13;;;15.60;99.90;;;;;;5113897;28;20457;-70
2022/06/29 04:06:29;;;;;;;5.40;4.97;;;15.60;99.90;;;;;;5113720;28;20460;-70
2022/06/29 04:08:56;;;;;;;5.87;5.37;;;15.60;99.90;;;;;;5113387;28;20468;-69
2022/06/29 04:14:08;;;;;;;5.83;5.33;;;15.60;99.90;;;;;;5113245;28;20476;-70
2022/06/29 04:16:35;;;;;;;5.70;5.20;;;15.60;99.90;;;;;;5113354;28;20559;-71
2022/06/29 04:19:01;;;;;;;5.87;5.37;;;15.60;99.90;;;;;;5113251;28;20453;-70
2022/06/29 04:21:28;;;;;;;5.43;5.03;;;15.60;99.90;;;;;;5113124;28;20461;-71
2022/06/29 04:23:55;;;;;;;6.17;5.67;;;15.60;99.90;;;;;;5113292;28;20940;-71
2022/06/29 04:26:22;;;;;;;5.53;5.13;;;15.70;99.90;;;;;;5113116;28;20876;-71
2022/06/29 04:28:48;;;;;;;5.50;5.10;;;15.70;99.90;;;;;;5113309;28;20480;-71
2022/06/29 04:31:17;;;;;;;5.70;5.30;;;15.70;99.90;;;;;;5113105;28;20472;-71
2022/06/29 04:33:43;;;;;;;5.20;4.80;;;15.70;99.90;;;;;;5113504;28;20481;-71
2022/06/29 04:36:10;;;;;;;6.90;6.30;;;15.80;99.90;;;;;;5113328;28;20471;-71
2022/06/29 04:38:37;;;;;;;5.93;5.43;;;15.80;99.90;;;;;;5113143;28;20481;-70
2022/06/29 04:41:04;;;;;;;6.00;5.50;;;15.90;99.90;;;;;;5112638;28;20464;-71
2022/06/29 04:43:30;;;;;;;5.60;5.10;;;16.00;99.90;;;;;;5113468;28;20461;-71
2022/06/29 04:48:43;;;;;;;5.53;5.03;;;16.00;99.90;;;;;;5113428;28;20459;-70
2022/06/29 04:51:10;;;;;;;6.80;6.10;;;16.00;99.90;;;;;;5112440;28;20457;-72
2022/06/29 04:53:37;;;;;;;7.07;6.47;;;16.10;99.90;;;;;;5112870;28;20488;-72
2022/06/29 04:56:04;;;;;;;6.20;5.60;;;16.10;99.90;;;;;;5112847;28;20463;-70
2022/06/29 04:58:31;;;;;;;7.57;4.90;;;16.10;99.90;;;;;;5112797;28;20563;-71
2022/06/29 05:00:57;;;;;;;6.37;5.30;;;16.10;99.90;;;;;;5112281;28;20456;-70
2022/06/29 05:03:24;;;;;;;6.43;5.93;;;16.20;99.90;;;;;;5112879;28;20488;-70
2022/06/29 05:05:52;;;;;;;6.40;5.20;;;16.20;99.90;;;;;;5112703;28;20464;-71
2022/06/29 05:08:19;;;;;;;6.33;5.80;;;16.20;99.90;;;;;;5112453;28;20472;-71
2022/06/29 05:10:45;;;;;;;6.20;5.60;;;16.30;99.90;;;;;;5112262;28;20934;-70
2022/06/29 05:13:12;;;;;;;5.93;5.43;;;16.30;99.90;;;;;;5112548;28;20464;-70
2022/06/29 05:15:39;;;;;;;6.20;5.60;;;16.40;99.90;;;;;;5112646;28;20480;-71
2022/06/29 05:18:06;;;;;;;6.00;5.40;;;16.40;99.90;;;;;;5112247;28;20559;-71
2022/06/29 05:20:33;;;;;;;6.37;5.77;;;16.40;99.90;;;;;;5112055;28;20460;-70
2022/06/29 05:23:01;;;;;;;6.07;5.40;;;16.50;99.90;;;;;;5112339;28;20460;-72
2022/06/29 05:25:28;;;;;;;6.33;5.73;;;16.50;99.90;;;;;;5111600;28;20460;-70
2022/06/29 05:27:55;;;;;;;6.43;5.27;;;16.60;99.90;;;;;;5111981;28;20551;-71
2022/06/29 05:30:21;;;;;;;5.80;4.87;;;16.60;99.90;;;;;;5111768;28;20463;-71
2022/06/29 05:32:48;;;;;;;6.10;5.60;;;16.60;99.90;;;;;;5112367;28;20468;-70
2022/06/29 05:35:15;;;;;;;6.90;6.20;;;16.60;99.90;;;;;;5112073;28;20485;-72
2022/06/29 05:37:41;;;;;;;6.00;5.50;;;16.60;99.90;;;;;;5112051;28;20480;-70
2022/06/29 05:40:10;;;;;;;6.33;5.83;;;16.70;99.90;;;;;;5111716;28;20460;-70
2022/06/29 05:42:36;;;;;;;5.63;5.23;;;16.70;99.90;;;;;;5112213;28;20457;-71
2022/06/29 05:45:04;;;;;;;6.33;5.83;;;16.80;99.90;;;;;;5111966;28;20480;-72
2022/06/29 05:47:31;;;;;;;6.30;5.70;;;16.90;99.90;;;;;;5112005;28;20476;-71
2022/06/29 05:50:00;;;;;;;6.83;6.10;;;17.00;99.90;;;;;;5111300;28;20468;-71
2022/06/29 05:52:27;;;;;;;6.03;5.53;;;17.10;99.90;;;;;;5112069;28;20943;-71
2022/06/29 05:54:54;;;;;;;6.20;5.70;;;17.20;99.90;;;;;;5111801;28;20801;-71
2022/06/29 05:57:22;;;;;;;7.53;5.57;;;17.30;99.90;;;;;;5111860;28;20559;-71
2022/06/29 05:59:48;;;;;;;8.03;6.30;;;17.40;99.90;;;;;;5111415;28;20457;-71
2022/06/29 06:02:15;;;;;;;6.47;5.97;;;17.50;99.90;;;;;;5111972;28;20464;-71
2022/06/29 06:04:42;;;;;;;10.00;6.20;;;17.60;99.90;;;;;;5111703;28;20971;-70
2022/06/29 06:07:09;;;;;;;6.70;6.10;;;17.80;99.90;;;;;;5111324;28;20584;-71
2022/06/29 06:09:36;;;;;;;6.83;6.33;;;17.90;99.90;;;;;;5111190;28;20469;-71
2022/06/29 06:12:03;;;;;;;6.37;5.77;;;18.00;99.90;;;;;;5111739;28;20460;-70
2022/06/29 06:14:31;;;;;;;6.20;5.60;;;18.10;99.90;;;;;;5111765;28;20491;-71
2022/06/29 06:16:57;;;;;;;8.03;5.50;;;18.20;99.90;;;;;;5111343;28;20473;-72
2022/06/29 06:19:24;;;;;;;7.50;6.50;;;18.30;99.90;;;;;;5111121;28;20580;-71
2022/06/29 06:21:51;;;;;;;6.50;5.90;;;18.40;99.90;;;;;;5111474;28;20467;-70
2022/06/29 06:24:17;;;;;;;6.53;6.03;;;18.50;99.90;;;;;;5111566;28;20453;-70
2022/06/29 06:26:44;;;;;;;8.07;5.93;;;18.60;99.90;;;;;;5111391;28;20457;-70
2022/06/29 06:29:11;;;;;;;6.43;5.90;;;18.70;99.90;;;;;;5111483;28;20814;-71
2022/06/29 06:31:39;;;;;;;6.13;5.57;;;18.70;99.90;;;;;;5111517;28;20460;-71
2022/06/29 06:34:06;;;;;;;6.00;5.47;;;18.90;99.90;;;;;;5111971;28;20461;-70
2022/06/29 06:36:32;;;;;;;5.60;5.00;;;19.00;99.90;;;;;;5114631;28;20468;-69
2022/06/29 06:38:59;;;;;;;6.23;5.60;;;19.10;99.90;;;;;;5118508;28;20460;-69
2022/06/29 06:41:25;;;;;;;5.73;5.13;;;19.10;99.90;;;;;;5117757;28;20468;-69
2022/06/29 06:43:53;;;;;;;6.37;5.87;;;19.20;99.90;;;;;;5118033;28;20879;-70
2022/06/29 06:46:20;;;;;;;6.70;6.20;;;19.20;99.90;;;;;;5118095;28;20962;-69
2022/06/29 06:48:50;;;;;;;5.60;5.10;;;19.30;99.90;;;;;;5117854;28;20479;-69
2022/06/29 06:51:17;;;;;;;5.50;5.10;;;19.40;99.90;;;;;;5117693;28;20456;-69
2022/06/29 06:53:44;;;;;;;5.73;5.07;;;19.50;99.90;;;;;;5118047;28;20460;-69
2022/06/29 06:56:11;;;;;;;5.47;4.97;;;19.60;99.90;;;;;;5117909;28;20507;-70
2022/06/29 06:58:37;;;;;;;5.33;4.93;;;19.70;99.90;;;;;;5118013;28;20476;-69
2022/06/29 07:01:05;;;;;;;6.57;5.03;;;19.90;99.90;;;;;;5117297;28;20479;-70
2022/06/29 07:03:32;;;;;;;7.73;5.33;;;20.10;99.90;;;;;;5117761;28;20499;-69
2022/06/29 07:06:04;;;;;;;5.70;5.10;;;20.20;99.90;;;;;;5117694;28;20459;-69
2022/06/29 07:08:31;;;;;;;5.83;5.33;;;20.30;99.90;;;;;;5117821;28;20571;-68
2022/06/29 07:10:58;;;;;;;5.00;4.50;;;20.40;99.90;;;;;;5117232;28;20521;-68
2022/06/29 07:13:24;;;;;;;6.33;5.83;;;20.40;99.90;;;;;;5118007;28;20463;-69
2022/06/29 07:15:51;;;;;;;5.90;5.40;;;20.50;99.90;;;;;;5117897;28;20492;-69
2022/06/29 07:18:18;;;;;;;5.67;5.17;;;20.70;99.90;;;;;;5117687;28;20570;-68
2022/06/29 07:20:44;;;;;;;5.63;5.23;;;20.70;99.90;;;;;;5117092;28;20947;-69
2022/06/29 07:23:12;;;;;;;4.67;4.27;;;20.80;99.90;;;;;;5117653;28;20467;-69
2022/06/29 07:25:39;;;;;;;4.90;4.50;;;20.80;99.90;;;;;;5117671;28;20810;-69
2022/06/29 07:28:06;;;;;;;5.80;5.30;;;20.90;99.90;;;;;;5117367;28;20488;-69
2022/06/29 07:30:33;;;;;;;4.83;4.43;;;20.90;99.90;;;;;;5117448;28;20888;-69
2022/06/29 07:32:59;;;;;;;4.83;4.53;;;21.00;99.90;;;;;;5117501;28;20456;-69
2022/06/29 07:35:26;;;;;;;5.77;5.27;;;21.10;99.90;;;;;;5117544;28;20487;-69
2022/06/29 07:37:53;;;;;;;5.17;4.70;;;21.10;99.90;;;;;;5117277;28;20484;-68
2022/06/29 07:40:21;;;;;;;5.60;4.77;;;21.20;99.90;;;;;;5117243;28;20463;-69
2022/06/29 07:42:48;;;;;;;5.40;4.90;;;21.20;99.90;;;;;;5117633;28;20547;-69
2022/06/29 07:45:15;;;;;;;4.73;4.33;;;21.20;99.90;;;;;;5117487;28;20460;-69
2022/06/29 07:47:42;;;;;;;5.47;4.60;;;21.30;99.90;;;;;;5115755;28;20484;-69
2022/06/29 07:50:10;;;;;;;4.70;4.30;;;21.40;99.90;;;;;;5113871;28;20892;-68
2022/06/29 07:52:38;;;;;;;5.00;4.60;;;21.50;99.90;;;;;;5114197;28;20981;-68
2022/06/29 07:55:05;;;;;;;5.07;4.67;;;21.60;99.90;;;;;;5114056;28;20481;-69
2022/06/29 07:57:34;;;;;;;5.37;4.97;;;21.80;99.90;;;;;;5113957;28;20477;-68
2022/06/29 08:00:00;;;;;;;5.13;4.73;;;22.00;99.90;;;;;;5113369;28;20960;-68
2022/06/29 08:02:27;;;;;;;6.07;4.80;;;22.20;99.90;;;;;;5114238;28;20892;-69
2022/06/29 08:04:54;;;;;;;4.90;4.50;;;22.40;99.90;;;;;;5113720;28;20463;-69
2022/06/29 08:07:20;;;;;;;4.70;4.30;;;22.50;99.90;;;;;;5113939;28;20865;-70
2022/06/29 08:09:48;;;;;;;4.70;4.30;;;22.60;99.90;;;;;;5113359;28;20467;-68
2022/06/29 08:12:16;;;;;;;5.50;5.00;;;22.80;99.90;;;;;;5113810;28;20461;-68
2022/06/29 08:14:44;;;;;;;5.20;4.70;;;23.00;99.90;;;;;;5114122;28;20568;-69
2022/06/29 08:17:10;;;;;;;5.43;4.93;;;22.90;99.90;;;;;;5113469;28;20480;-70
2022/06/29 08:19:37;;;;;;;5.87;5.27;;;23.10;99.90;;;;;;5113202;28;20465;-69
2022/06/29 08:22:04;;;;;;;5.30;4.87;;;23.30;99.90;;;;;;5113545;28;20951;-69
2022/06/29 08:24:31;;;;;;;4.67;4.37;;;23.40;99.90;;;;;;5113693;28;20460;-69
2022/06/29 08:26:58;;;;;;;5.20;4.40;;;23.40;99.90;;;;;;5113128;28;20487;-69
2022/06/29 08:29:24;;;;;;;4.80;4.43;;;23.40;99.90;;;;;;5113253;28;20480;-68
2022/06/29 08:31:52;;;;;;;5.13;4.73;;;23.40;99.90;;;;;;5113597;28;20472;-68
2022/06/29 08:34:19;;;;;;;5.00;4.60;;;23.50;99.90;;;;;;5113662;28;20456;-69
2022/06/29 08:36:46;;;;;;;4.47;4.07;;;23.50;99.90;;;;;;5113287;28;21017;-69
2022/06/29 08:39:12;;;;;;;4.13;3.73;;;23.50;99.90;;;;;;5112912;28;20462;-69
2022/06/29 08:41:40;;;;;;;5.20;4.70;;;23.50;99.90;;;;;;5113383;28;20950;-69
2022/06/29 08:44:07;;;;;;;4.90;4.50;;;23.40;99.90;;;;;;5113148;28;20459;-69
2022/06/29 08:46:34;;;;;;;5.17;4.77;;;23.40;99.90;;;;;;5113147;28;20830;-69
2022/06/29 08:49:03;;;;;;;5.57;5.13;;;23.40;99.90;;;;;;5112818;28;20456;-70
2022/06/29 08:51:34;;;;;;;5.33;4.37;;;23.40;99.90;;;;;;5112835;28;20456;-70
2022/06/29 08:54:02;;;;;;;4.63;3.90;;;23.40;99.90;;;;;;5112976;28;20883;-69
2022/06/29 08:56:29;;;;;;;5.30;4.90;;;23.30;99.90;;;;;;5112830;28;20487;-70
2022/06/29 08:58:56;;;;;;;5.13;4.63;;;23.30;99.90;;;;;;5112265;28;20460;-70
2022/06/29 09:01:23;;;;;;;6.93;4.33;;;23.30;99.90;;;;;;5111858;28;20460;-69
2022/06/29 09:03:50;;;;;;;4.50;4.10;;;23.20;99.90;;;;;;5113068;28;20461;-70
2022/06/29 09:06:18;;;;;;;5.27;4.23;;;23.20;99.90;;;;;;5112678;28;20450;-70
2022/06/29 09:08:44;;;;;;;4.43;4.13;;;23.20;99.90;;;;;;5112595;28;20988;-70
2022/06/29 09:11:21;;;;;;;4.57;4.17;;;23.20;99.90;;;;;;5136033;22;20475;-93
2022/06/29 09:13:48;;;;;;;4.87;4.47;;;23.20;99.90;;;;;;5075396;28;20447;-93
2022/06/29 09:16:25;;;;;;;5.77;4.90;;;23.10;99.90;;;;;;5077642;28;20472;-93
2022/06/29 09:18:51;;;;;;;4.80;4.50;;;23.10;99.90;;;;;;5077444;28;20442;-92
2022/06/29 09:21:19;;;;;;;5.53;5.00;;;23.10;99.90;;;;;;5075593;28;20472;-94
2022/06/29 09:23:46;;;;;;;4.70;4.27;;;23.10;99.90;;;;;;5081369;22;20854;-75
2022/06/29 09:26:13;;;;;;;4.30;3.90;;;23.00;99.90;;;;;;5073617;28;20450;-76
2022/06/29 09:28:40;;;;;;;8.13;4.73;;;23.00;99.90;;;;;;5074215;28;21000;-76
2022/06/29 09:31:08;;;;;;;4.97;4.57;;;23.00;99.90;;;;;;5073659;28;20453;-75
2022/06/29 09:33:34;;;;;;;5.60;5.10;;;23.00;99.90;;;;;;5074061;28;20454;-76
2022/06/29 09:36:06;;;;;;;4.80;4.40;;;23.00;99.90;;;;;;5073490;28;20491;-76
2022/06/29 09:38:35;;;;;;;5.40;5.00;;;23.00;99.90;;;;;;5073456;28;20478;-75
2022/06/29 09:41:04;;;;;;;5.27;4.87;;;23.10;99.90;;;;;;5073757;28;20470;-76
2022/06/29 09:43:33;;;;;;;5.07;4.60;;;23.10;99.90;;;;;;5074980;28;20557;-75
2022/06/29 09:46:01;;;;;;;5.03;4.50;;;23.10;99.90;;;;;;5074411;28;20482;-75
2022/06/29 09:48:29;;;;;;;5.97;4.83;;;23.00;99.90;;;;;;5074157;28;20483;-76
2022/06/29 09:50:56;;;;;;;5.83;5.23;;;23.10;99.90;;;;;;5073432;28;20954;-74
2022/06/29 09:53:38;;;;;;;5.13;4.70;;;23.10;99.90;;;;;;5073362;28;20466;-74
2022/06/29 09:56:06;;;;;;;5.40;4.90;;;23.30;99.90;;;;;;5073597;28;20512;-74
2022/06/29 09:58:47;;;;;;;5.83;5.33;;;23.30;99.90;;;;;;5073792;28;20478;-73
2022/06/29 10:04:01;;;;;;;5.30;4.87;;;23.50;99.90;;;;;;5073658;28;20521;-74
2022/06/29 10:06:29;;;;;;;5.60;5.10;;;23.60;99.90;;;;;;5073169;28;20482;-74
2022/06/29 10:08:57;;;;;;;7.60;5.10;;;23.70;99.90;;;;;;5072775;28;20459;-74
2022/06/29 10:14:30;;;;;;;5.67;4.70;;;24.10;99.90;;;;;;5073517;28;20810;-74
2022/06/29 10:17:05;;;;;;;5.27;4.87;;;24.00;99.90;;;;;;5072869;28;20486;-74
2022/06/29 10:19:46;;;;;;;6.07;5.10;;;24.00;99.90;;;;;;5072291;28;20449;-74
2022/06/29 10:22:13;;;;;;;4.70;4.30;;;24.00;99.90;;;;;;5073223;28;21050;-74
2022/06/29 10:25:00;;;;;;;4.93;4.53;;;24.10;99.90;;;;;;5072467;28;20548;-73
2022/06/29 10:27:27;;;;;;;4.80;4.13;;;24.10;99.90;;;;;;5072931;28;20482;-76
2022/06/29 10:30:20;;;;;;;5.23;4.73;;;24.30;99.90;;;;;;5071243;28;20956;-73
2022/06/29 10:32:48;;;;;;;5.43;4.37;;;24.70;99.90;;;;;;5072311;28;20461;-74
2022/06/29 10:35:15;;;;;;;7.70;4.33;;;25.10;99.90;;;;;;5072305;28;20462;-76
2022/06/29 10:37:53;;;;;;;4.63;4.33;;;25.30;99.90;;;;;;5074455;28;20485;-75
2022/06/29 10:40:24;;;;;;;4.90;4.50;;;25.40;99.90;;;;;;5073197;28;20977;-74
2022/06/29 10:43:08;;;;;;;5.27;4.77;;;25.40;99.90;;;;;;5074007;28;20490;-74
2022/06/29 10:45:38;;;;;;;4.60;4.20;;;25.20;99.90;;;;;;5073499;28;20455;-74
2022/06/29 10:48:20;;;;;;;5.50;4.70;;;25.10;99.90;;;;;;5073304;28;20479;-74
2022/06/29 10:50:47;;;;;;;4.33;4.03;;;24.90;99.90;;;;;;5072795;28;20490;-74
2022/06/29 10:53:16;;;;;;;4.27;3.90;;;24.90;99.90;;;;;;5073049;28;20490;-74
2022/06/29 10:55:45;;;;;;;5.30;4.70;;;24.80;99.90;;;;;;5072961;28;20486;-74
2022/06/29 10:58:13;;;;;;;4.73;4.33;;;24.70;99.90;;;;;;5072900;28;20483;-74
2022/06/29 11:00:41;;;;;;;4.60;4.20;;;24.60;99.90;;;;;;5072526;28;20466;-76
2022/06/29 11:03:10;;;;;;;4.30;3.90;;;24.60;99.90;;;;;;5072880;28;20493;-75
2022/06/29 11:12:01;;;;;;;6.30;4.17;;;24.60;99.90;;;;;;5072872;28;20454;-75
2022/06/29 11:13:58;;;;;;;5.27;4.73;;;24.60;99.90;;;;;;5072959;28;20446;-74
2022/06/29 11:16:36;;;;;;;4.40;4.00;;;24.80;99.90;;;;;;5072597;28;20509;-74
2022/06/29 11:19:04;;;;;;;4.40;4.00;;;24.90;99.90;;;;;;5072088;28;20528;-74
2022/06/29 11:21:32;;;;;;;5.60;4.10;;;25.00;99.90;;;;;;5072886;28;20458;-74
2022/06/29 11:24:02;;;;;;;4.50;4.10;;;25.00;99.90;;;;;;5074462;28;20466;-74
2022/06/29 11:26:31;;;;;;;5.40;4.90;;;24.90;99.90;;;;;;5076754;28;20458;-74
2022/06/29 11:28:58;;;;;;;7.63;4.43;;;24.70;99.90;;;;;;5076383;28;20465;-74
2022/06/29 11:31:26;;;;;;;5.23;4.67;;;24.60;99.90;;;;;;5075768;28;20834;-74
2022/06/29 11:33:54;;;;;;;4.70;4.20;;;24.50;99.90;;;;;;5076035;28;20496;-74
2022/06/29 11:36:24;;;;;;;5.03;4.53;;;24.40;99.90;;;;;;5075743;28;21067;-74
2022/06/29 11:38:52;;;;;;;6.40;5.27;;;24.50;99.90;;;;;;5075592;28;20489;-74
2022/06/29 11:41:22;;;;;;;6.97;4.20;;;24.50;99.90;;;;;;5075727;28;20462;-74
2022/06/29 11:44:00;;;;;;;4.53;4.13;;;24.50;99.90;;;;;;5076190;28;20461;-74
2022/06/29 11:46:28;;;;;;;4.50;4.20;;;24.50;99.90;;;;;;5076041;28;20477;-74
2022/06/29 11:51:50;;;;;;;4.10;3.70;;;24.60;99.90;;;;;;5075673;28;20503;-74
2022/06/29 11:54:16;;;;;;;5.27;4.87;;;24.70;99.90;;;;;;5075753;28;20886;-74
2022/06/29 11:56:44;;;;;;;4.30;3.90;;;24.80;99.90;;;;;;5075517;28;20478;-74
2022/06/29 11:59:15;;;;;;;4.67;3.97;;;24.90;99.90;;;;;;5074984;28;21143;-74
2022/06/29 12:01:51;;;;;;;4.67;4.27;;;24.90;99.90;;;;;;5075890;28;20841;-74
2022/06/29 12:04:27;;;;;;;5.10;4.20;;;25.00;99.90;;;;;;5075897;28;21005;-74
2022/06/29 12:07:02;;;;;;;4.77;3.90;;;25.00;99.90;;;;;;5075667;28;20470;-74
2022/06/29 12:09:29;;;;;;;5.83;4.53;;;25.10;99.90;;;;;;5075315;28;20467;-74
2022/06/29 12:11:55;;;;;;;5.80;4.50;;;25.20;99.90;;;;;;5075591;28;20462;-75
2022/06/29 12:14:23;;;;;;;4.17;3.87;;;25.30;99.90;;;;;;5075788;28;20458;-75
2022/06/29 12:16:50;;;;;;;4.23;3.93;;;25.30;99.90;;;;;;5075914;28;20494;-74
2022/06/29 12:19:17;;;;;;;4.80;4.30;;;25.40;99.90;;;;;;5077333;28;20463;-74
2022/06/29 12:21:44;;;;;;;4.50;4.10;;;25.40;99.90;;;;;;5077807;28;20466;-74
2022/06/29 12:24:11;;;;;;;4.60;3.80;;;25.60;99.90;;;;;;5076319;28;20962;-74
2022/06/29 12:26:37;;;;;;;4.83;3.77;;;25.70;99.90;;;;;;5075713;28;20454;-74
2022/06/29 12:29:04;;;;;;;5.03;3.80;;;25.60;99.90;;;;;;5075501;28;20485;-73
2022/06/29 12:31:32;;;;;;;4.27;3.87;;;25.40;99.90;;;;;;5074615;28;20458;-74
2022/06/29 12:33:59;;;;;;;3.80;3.50;;;25.30;99.90;;;;;;5074784;28;20562;-74
2022/06/29 12:36:26;;;;;;;5.03;4.10;;;25.20;99.90;;;;;;5074671;28;20529;-74
2022/06/29 12:38:53;;;;;;;4.13;3.73;;;25.10;99.90;;;;;;5074036;28;20458;-74
2022/06/29 12:41:19;;;;;;;6.70;4.10;;;25.10;99.90;;;;;;5074032;28;20466;-74
2022/06/29 12:43:46;;;;;;;4.53;4.00;;;25.00;99.90;;;;;;5074203;28;20847;-74
2022/06/29 12:46:13;;;;;;;3.83;3.53;;;25.00;99.90;;;;;;5073871;28;20458;-74
2022/06/29 12:48:41;;;;;;;4.63;4.03;;;25.10;99.90;;;;;;5074029;28;20478;-74
2022/06/29 12:51:09;;;;;;;4.13;3.73;;;25.40;99.90;;;;;;5073428;28;20906;-74
2022/06/29 12:53:36;;;;;;;4.37;3.97;;;25.90;99.90;;;;;;5073644;28;20469;-74
2022/06/29 12:56:03;;;;;;;3.70;3.40;;;26.40;99.90;;;;;;5073948;28;20466;-74
2022/06/29 12:58:32;;;;;;;4.17;3.77;;;26.60;99.90;;;;;;5073725;28;20493;-74
2022/06/29 13:00:59;;;;;;;4.53;3.87;;;26.40;99.90;;;;;;5072799;28;20851;-74
2022/06/29 13:03:26;;;;;;;4.67;3.33;;;26.20;99.90;;;;;;5073477;28;20467;-74
2022/06/29 13:05:54;;;;;;;3.63;3.10;;;26.00;99.90;;;;;;5073412;28;20841;-75
2022/06/29 13:08:20;;;;;;;4.27;3.90;;;25.80;99.90;;;;;;5072996;28;20482;-74
2022/06/29 13:10:47;;;;;;;5.50;3.80;;;25.70;99.90;;;;;;5073226;28;20461;-74
2022/06/29 13:13:14;;;;;;;3.90;3.23;;;25.90;99.90;;;;;;5073346;28;20883;-74
2022/06/29 13:15:40;;;;;;;4.00;3.60;;;26.10;99.90;;;;;;5073621;28;20466;-74